sensor_id;sensor_type;location;lat;lon;timestamp;pressure;altitude;pressure_sealevel;temperature;humidity
14134;BME280;7147;59.364;18.018;2022-12-18T00:02:20;-14565.66;;;-143.32;100.00
14134;BME280;7147;59.364;18.018;2022-12-18T00:04:47;-14565.66;;;-143.32;100.00
14134;BME280;7147;59.364;18.018;2022-12-18T00:07:15;-14565.66;;;-143.32;100.00
14134;BME280;7147;59.364;18.018;2022-12-18T00:09:42;-14565.66;;;-143.32;100.00
14134;BME280;7147;59.364;18.018;2022-12-18T00:12:09;-14565.66;;;-143.32;100.00
14134;BME280;7147;59.364;18.018;2022-12-18T00:14:36;-14565.66;;;-143.32;100.00
14134;BME280;7147;59.364;18.018;2022-12-18T00:17:03;-14565.66;;;-143.32;100.00
14134;BME280;7147;59.364;18.018;2022-12-18T00:19:30;-14565.66;;;-143.32;100.00
14134;BME280;7147;59.364;18.018;2022-12-18T00:21:57;-14565.66;;;-143.32;100.00
14134;BME280;7147;59.364;18.018;2022-12-18T00:24:26;-14565.66;;;-143.32;100.00
14134;BME280;7147;59.364;18.018;2022-12-18T00:26:53;-14565.66;;;-143.32;100.00
14134;BME280;7147;59.364;18.018;2022-12-18T00:29:19;-14565.66;;;-143.32;100.00
14134;BME280;7147;59.364;18.018;2022-12-18T00:31:46;-14565.66;;;-143.32;100.00
14134;BME280;7147;59.364;18.018;2022-12-18T00:34:13;-14565.66;;;-143.32;100.00
14134;BME280;7147;59.364;18.018;2022-12-18T00:36:43;-14565.66;;;-143.32;100.00
14134;BME280;7147;59.364;18.018;2022-12-18T00:39:11;-14565.66;;;-143.32;100.00
14134;BME280;7147;59.364;18.018;2022-12-18T00:41:39;-14565.66;;;-143.32;100.00
14134;BME280;7147;59.364;18.018;2022-12-18T00:44:24;-14565.66;;;-143.32;100.00
14134;BME280;7147;59.364;18.018;2022-12-18T00:46:50;-14565.66;;;-143.32;100.00
14134;BME280;7147;59.364;18.018;2022-12-18T00:49:19;-14565.66;;;-143.32;100.00
14134;BME280;7147;59.364;18.018;2022-12-18T00:51:46;-14565.66;;;-143.32;100.00
14134;BME280;7147;59.364;18.018;2022-12-18T00:54:13;-14565.66;;;-143.32;100.00
14134;BME280;7147;59.364;18.018;2022-12-18T00:56:41;-14565.66;;;-143.32;100.00
14134;BME280;7147;59.364;18.018;2022-12-18T00:59:08;-14565.66;;;-143.32;100.00
14134;BME280;7147;59.364;18.018;2022-12-18T01:01:35;-14565.66;;;-143.32;100.00
14134;BME280;7147;59.364;18.018;2022-12-18T01:04:03;-14565.66;;;-143.32;100.00
14134;BME280;7147;59.364;18.018;2022-12-18T01:06:29;-14565.66;;;-143.32;100.00
14134;BME280;7147;59.364;18.018;2022-12-18T01:08:56;-14565.66;;;-143.32;100.00
14134;BME280;7147;59.364;18.018;2022-12-18T01:11:24;-14565.66;;;-143.32;100.00
14134;BME280;7147;59.364;18.018;2022-12-18T01:13:53;-14565.66;;;-143.32;100.00
14134;BME280;7147;59.364;18.018;2022-12-18T01:16:21;-14565.66;;;-143.32;100.00
14134;BME280;7147;59.364;18.018;2022-12-18T01:18:53;-14565.66;;;-143.32;100.00
14134;BME280;7147;59.364;18.018;2022-12-18T01:21:21;-14565.66;;;-143.32;100.00
14134;BME280;7147;59.364;18.018;2022-12-18T01:23:51;-14565.66;;;-143.32;100.00
14134;BME280;7147;59.364;18.018;2022-12-18T01:26:19;-14565.66;;;-143.32;100.00
14134;BME280;7147;59.364;18.018;2022-12-18T01:28:46;-14565.66;;;-143.32;100.00
14134;BME280;7147;59.364;18.018;2022-12-18T01:31:17;-14565.66;;;-143.32;100.00
14134;BME280;7147;59.364;18.018;2022-12-18T01:33:45;-14565.66;;;-143.32;100.00
14134;BME280;7147;59.364;18.018;2022-12-18T01:36:17;-14565.66;;;-143.32;100.00
14134;BME280;7147;59.364;18.018;2022-12-18T01:38:45;-14565.66;;;-143.32;100.00
14134;BME280;7147;59.364;18.018;2022-12-18T01:41:13;-14565.66;;;-143.32;100.00
14134;BME280;7147;59.364;18.018;2022-12-18T01:43:42;-14565.66;;;-143.32;100.00
14134;BME280;7147;59.364;18.018;2022-12-18T01:46:09;-14565.66;;;-143.32;100.00
14134;BME280;7147;59.364;18.018;2022-12-18T01:48:38;-14565.66;;;-143.32;100.00
14134;BME280;7147;59.364;18.018;2022-12-18T01:51:06;-14565.66;;;-143.32;100.00
14134;BME280;7147;59.364;18.018;2022-12-18T01:53:33;-14565.66;;;-143.32;100.00
14134;BME280;7147;59.364;18.018;2022-12-18T01:56:00;-14565.66;;;-143.32;100.00
14134;BME280;7147;59.364;18.018;2022-12-18T01:58:35;-14565.66;;;-143.32;100.00
14134;BME280;7147;59.364;18.018;2022-12-18T02:01:04;-14565.66;;;-143.32;100.00
14134;BME280;7147;59.364;18.018;2022-12-18T02:03:30;-14565.66;;;-143.32;100.00
14134;BME280;7147;59.364;18.018;2022-12-18T02:06:03;-14565.66;;;-143.32;100.00
14134;BME280;7147;59.364;18.018;2022-12-18T02:08:36;-14565.66;;;-143.32;100.00
14134;BME280;7147;59.364;18.018;2022-12-18T02:11:10;-14565.66;;;-143.32;100.00
14134;BME280;7147;59.364;18.018;2022-12-18T02:13:46;-14565.66;;;-143.32;100.00
14134;BME280;7147;59.364;18.018;2022-12-18T02:16:21;-14565.66;;;-143.32;100.00
14134;BME280;7147;59.364;18.018;2022-12-18T02:18:56;-14565.66;;;-143.32;100.00
14134;BME280;7147;59.364;18.018;2022-12-18T02:21:31;-14565.66;;;-143.32;100.00
14134;BME280;7147;59.364;18.018;2022-12-18T02:24:13;-14565.66;;;-143.32;100.00
14134;BME280;7147;59.364;18.018;2022-12-18T02:26:47;-14565.66;;;-143.32;100.00
14134;BME280;7147;59.364;18.018;2022-12-18T02:29:17;-14565.66;;;-143.32;100.00
14134;BME280;7147;59.364;18.018;2022-12-18T02:31:49;-14565.66;;;-143.32;100.00
14134;BME280;7147;59.364;18.018;2022-12-18T02:34:18;-14565.66;;;-143.32;100.00
14134;BME280;7147;59.364;18.018;2022-12-18T02:36:48;-14565.66;;;-143.32;100.00
14134;BME280;7147;59.364;18.018;2022-12-18T02:39:16;-14565.66;;;-143.32;100.00
14134;BME280;7147;59.364;18.018;2022-12-18T02:41:46;-14565.66;;;-143.32;100.00
14134;BME280;7147;59.364;18.018;2022-12-18T02:44:13;-14560.03;;;-143.32;100.00
14134;BME280;7147;59.364;18.018;2022-12-18T02:46:42;-14565.66;;;-143.32;100.00
14134;BME280;7147;59.364;18.018;2022-12-18T02:49:19;-14560.03;;;-143.32;100.00
14134;BME280;7147;59.364;18.018;2022-12-18T02:51:53;-14511.03;;;-143.32;100.00
14134;BME280;7147;59.364;18.018;2022-12-18T02:54:30;-14476.31;;;-143.32;100.00
14134;BME280;7147;59.364;18.018;2022-12-18T02:57:07;-14482.44;;;-143.32;100.00
14134;BME280;7147;59.364;18.018;2022-12-18T02:59:43;-14443.63;;;-143.32;100.00
14134;BME280;7147;59.364;18.018;2022-12-18T03:02:20;-14480.38;;;-143.32;100.00
14134;BME280;7147;59.364;18.018;2022-12-18T03:04:52;-14404.81;;;-143.32;100.00
14134;BME280;7147;59.364;18.018;2022-12-18T03:07:26;-14241.44;;;-143.32;100.00
14134;BME280;7147;59.364;18.018;2022-12-18T03:09:55;-14404.81;;;-143.32;100.00
14134;BME280;7147;59.364;18.018;2022-12-18T03:12:29;-14466.09;;;-143.32;100.00
14134;BME280;7147;59.364;18.018;2022-12-18T03:15:00;-14492.66;;;-143.32;100.00
14134;BME280;7147;59.364;18.018;2022-12-18T03:17:31;-14472.22;;;-143.32;100.00
14134;BME280;7147;59.364;18.018;2022-12-18T03:20:04;-14511.03;;;-143.32;100.00
14134;BME280;7147;59.364;18.018;2022-12-18T03:22:33;-14466.09;;;-143.32;100.00
14134;BME280;7147;59.364;18.018;2022-12-18T03:25:03;-14384.41;;;-143.32;100.00
14134;BME280;7147;59.364;18.018;2022-12-18T03:27:33;-14474.25;;;-143.32;100.00
14134;BME280;7147;59.364;18.018;2022-12-18T03:30:05;-14417.06;;;-143.32;100.00
14134;BME280;7147;59.364;18.018;2022-12-18T03:32:38;-14415.03;;;-143.32;100.00
14134;BME280;7147;59.364;18.018;2022-12-18T03:35:08;-14462.00;;;-143.32;100.00
14134;BME280;7147;59.364;18.018;2022-12-18T03:37:37;-14447.72;;;-143.32;100.00
14134;BME280;7147;59.364;18.018;2022-12-18T03:40:05;-14451.78;;;-143.32;100.00
14134;BME280;7147;59.364;18.018;2022-12-18T03:42:38;-14496.72;;;-143.32;100.00
14134;BME280;7147;59.364;18.018;2022-12-18T03:45:11;-14502.84;;;-143.32;100.00
14134;BME280;7147;59.364;18.018;2022-12-18T03:47:47;-14553.91;;;-143.32;100.00
14134;BME280;7147;59.364;18.018;2022-12-18T03:50:20;-14470.19;;;-143.32;100.00
14134;BME280;7147;59.364;18.018;2022-12-18T03:52:51;-14482.44;;;-143.32;100.00
14134;BME280;7147;59.364;18.018;2022-12-18T03:55:21;-14468.13;;;-143.32;100.00
14134;BME280;7147;59.364;18.018;2022-12-18T03:57:51;-14506.94;;;-143.32;100.00
14134;BME280;7147;59.364;18.018;2022-12-18T04:00:19;-14539.63;;;-143.32;100.00
14134;BME280;7147;59.364;18.018;2022-12-18T04:02:50;-14547.78;;;-143.32;100.00
14134;BME280;7147;59.364;18.018;2022-12-18T04:05:18;-14464.06;;;-143.32;100.00
14134;BME280;7147;59.364;18.018;2022-12-18T04:07:47;-14547.78;;;-143.32;100.00
14134;BME280;7147;59.364;18.018;2022-12-18T04:10:14;-14513.06;;;-143.32;100.00
14134;BME280;7147;59.364;18.018;2022-12-18T04:12:42;-14541.66;;;-143.32;100.00
14134;BME280;7147;59.364;18.018;2022-12-18T04:15:12;-14531.44;;;-143.32;100.00
14134;BME280;7147;59.364;18.018;2022-12-18T04:17:46;-14565.66;;;-143.32;100.00
14134;BME280;7147;59.364;18.018;2022-12-18T04:20:14;-14560.03;;;-143.32;100.00
14134;BME280;7147;59.364;18.018;2022-12-18T04:22:41;-14565.66;;;-143.32;100.00
14134;BME280;7147;59.364;18.018;2022-12-18T04:25:08;-14555.97;;;-143.32;100.00
14134;BME280;7147;59.364;18.018;2022-12-18T04:27:35;-14565.66;;;-143.32;100.00
14134;BME280;7147;59.364;18.018;2022-12-18T04:30:03;-14545.75;;;-143.32;100.00
14134;BME280;7147;59.364;18.018;2022-12-18T04:32:33;-14565.66;;;-143.32;100.00
14134;BME280;7147;59.364;18.018;2022-12-18T04:35:00;-14565.66;;;-143.32;100.00
14134;BME280;7147;59.364;18.018;2022-12-18T04:37:26;-14565.66;;;-143.32;100.00
14134;BME280;7147;59.364;18.018;2022-12-18T04:39:53;-14565.66;;;-143.32;100.00
14134;BME280;7147;59.364;18.018;2022-12-18T04:42:20;-14565.66;;;-143.32;100.00
14134;BME280;7147;59.364;18.018;2022-12-18T04:44:47;-14565.66;;;-143.32;100.00
14134;BME280;7147;59.364;18.018;2022-12-18T04:47:13;-14565.66;;;-143.32;100.00
14134;BME280;7147;59.364;18.018;2022-12-18T04:49:41;-14565.66;;;-143.32;100.00
14134;BME280;7147;59.364;18.018;2022-12-18T04:52:08;-14565.66;;;-143.32;100.00
14134;BME280;7147;59.364;18.018;2022-12-18T04:54:35;-14565.66;;;-143.32;100.00
14134;BME280;7147;59.364;18.018;2022-12-18T04:57:02;-14565.66;;;-143.32;100.00
14134;BME280;7147;59.364;18.018;2022-12-18T04:59:29;-14565.66;;;-143.32;100.00
14134;BME280;7147;59.364;18.018;2022-12-18T05:01:55;-14565.66;;;-143.32;100.00
14134;BME280;7147;59.364;18.018;2022-12-18T05:04:22;-14565.66;;;-143.32;100.00
14134;BME280;7147;59.364;18.018;2022-12-18T05:06:50;-14565.66;;;-143.32;100.00
14134;BME280;7147;59.364;18.018;2022-12-18T05:09:17;-14565.66;;;-143.32;100.00
14134;BME280;7147;59.364;18.018;2022-12-18T05:11:44;-14565.66;;;-143.32;100.00
14134;BME280;7147;59.364;18.018;2022-12-18T05:14:11;-14565.66;;;-143.32;100.00
14134;BME280;7147;59.364;18.018;2022-12-18T05:16:38;-14565.66;;;-143.32;100.00
14134;BME280;7147;59.364;18.018;2022-12-18T05:19:05;-14565.66;;;-143.32;100.00
14134;BME280;7147;59.364;18.018;2022-12-18T05:21:32;-14565.66;;;-143.32;100.00
14134;BME280;7147;59.364;18.018;2022-12-18T05:24:00;-14565.66;;;-143.32;100.00
14134;BME280;7147;59.364;18.018;2022-12-18T05:26:27;-14565.66;;;-143.32;100.00
14134;BME280;7147;59.364;18.018;2022-12-18T05:28:53;-14565.66;;;-143.32;100.00
14134;BME280;7147;59.364;18.018;2022-12-18T05:31:20;-14565.66;;;-143.32;100.00
14134;BME280;7147;59.364;18.018;2022-12-18T05:33:47;-14565.66;;;-143.32;100.00
14134;BME280;7147;59.364;18.018;2022-12-18T05:36:14;-14565.66;;;-143.32;100.00
14134;BME280;7147;59.364;18.018;2022-12-18T05:38:40;-14565.66;;;-143.32;100.00
14134;BME280;7147;59.364;18.018;2022-12-18T05:41:08;-14565.66;;;-143.32;100.00
14134;BME280;7147;59.364;18.018;2022-12-18T05:43:37;-14565.66;;;-143.32;100.00
14134;BME280;7147;59.364;18.018;2022-12-18T05:46:04;-14565.66;;;-143.32;100.00
14134;BME280;7147;59.364;18.018;2022-12-18T05:48:32;-14565.66;;;-143.32;100.00
14134;BME280;7147;59.364;18.018;2022-12-18T05:51:04;-14565.66;;;-143.32;100.00
14134;BME280;7147;59.364;18.018;2022-12-18T05:53:31;-14565.66;;;-143.32;100.00
14134;BME280;7147;59.364;18.018;2022-12-18T05:56:00;-14565.66;;;-143.32;100.00
14134;BME280;7147;59.364;18.018;2022-12-18T05:58:29;-14565.66;;;-143.32;100.00
14134;BME280;7147;59.364;18.018;2022-12-18T06:00:56;-14565.66;;;-143.32;100.00
14134;BME280;7147;59.364;18.018;2022-12-18T06:03:24;-14565.66;;;-143.32;100.00
14134;BME280;7147;59.364;18.018;2022-12-18T06:05:50;-14565.66;;;-143.32;100.00
14134;BME280;7147;59.364;18.018;2022-12-18T06:08:17;-14565.66;;;-143.32;100.00
14134;BME280;7147;59.364;18.018;2022-12-18T06:10:50;-14565.66;;;-143.32;100.00
14134;BME280;7147;59.364;18.018;2022-12-18T06:13:17;-14565.66;;;-143.32;100.00
14134;BME280;7147;59.364;18.018;2022-12-18T06:15:46;-14565.66;;;-143.32;100.00
14134;BME280;7147;59.364;18.018;2022-12-18T06:18:13;-14565.66;;;-143.32;100.00
14134;BME280;7147;59.364;18.018;2022-12-18T06:20:39;-14565.66;;;-143.32;100.00
14134;BME280;7147;59.364;18.018;2022-12-18T06:23:07;-14565.66;;;-143.32;100.00
14134;BME280;7147;59.364;18.018;2022-12-18T06:25:36;-14565.66;;;-143.32;100.00
14134;BME280;7147;59.364;18.018;2022-12-18T06:28:03;-14565.66;;;-143.32;100.00
14134;BME280;7147;59.364;18.018;2022-12-18T06:30:30;-14565.66;;;-143.32;100.00
14134;BME280;7147;59.364;18.018;2022-12-18T06:32:58;-14565.66;;;-143.32;100.00
14134;BME280;7147;59.364;18.018;2022-12-18T06:35:24;-14565.66;;;-143.32;100.00
14134;BME280;7147;59.364;18.018;2022-12-18T06:37:51;-14565.66;;;-143.32;100.00
14134;BME280;7147;59.364;18.018;2022-12-18T06:40:18;-14565.66;;;-143.32;100.00
14134;BME280;7147;59.364;18.018;2022-12-18T06:42:45;-14565.66;;;-143.32;100.00
14134;BME280;7147;59.364;18.018;2022-12-18T06:45:15;-14565.66;;;-143.32;100.00
14134;BME280;7147;59.364;18.018;2022-12-18T06:47:42;-14565.66;;;-143.32;100.00
14134;BME280;7147;59.364;18.018;2022-12-18T06:50:11;-14565.66;;;-143.32;100.00
14134;BME280;7147;59.364;18.018;2022-12-18T06:52:38;-14565.66;;;-143.32;100.00
14134;BME280;7147;59.364;18.018;2022-12-18T06:55:06;-14565.66;;;-143.32;100.00
14134;BME280;7147;59.364;18.018;2022-12-18T06:57:33;-14565.66;;;-143.32;100.00
14134;BME280;7147;59.364;18.018;2022-12-18T07:00:00;-14565.66;;;-143.32;100.00
14134;BME280;7147;59.364;18.018;2022-12-18T07:02:28;-14565.66;;;-143.32;100.00
14134;BME280;7147;59.364;18.018;2022-12-18T07:04:55;-14565.66;;;-143.32;100.00
14134;BME280;7147;59.364;18.018;2022-12-18T07:07:23;-14565.66;;;-143.32;100.00
14134;BME280;7147;59.364;18.018;2022-12-18T07:09:50;-14565.66;;;-143.32;100.00
14134;BME280;7147;59.364;18.018;2022-12-18T07:12:17;-14565.66;;;-143.32;100.00
14134;BME280;7147;59.364;18.018;2022-12-18T07:14:44;-14565.66;;;-143.32;100.00
14134;BME280;7147;59.364;18.018;2022-12-18T07:17:11;-14565.66;;;-143.32;100.00
14134;BME280;7147;59.364;18.018;2022-12-18T07:19:37;-14565.66;;;-143.32;100.00
14134;BME280;7147;59.364;18.018;2022-12-18T07:22:04;-14565.66;;;-143.32;100.00
14134;BME280;7147;59.364;18.018;2022-12-18T07:24:33;-14565.66;;;-143.32;100.00
14134;BME280;7147;59.364;18.018;2022-12-18T07:27:00;-14565.66;;;-143.32;100.00
14134;BME280;7147;59.364;18.018;2022-12-18T07:29:27;-14565.66;;;-143.32;100.00
14134;BME280;7147;59.364;18.018;2022-12-18T07:31:54;-14565.66;;;-143.32;100.00
14134;BME280;7147;59.364;18.018;2022-12-18T07:34:21;-14565.66;;;-143.32;100.00
14134;BME280;7147;59.364;18.018;2022-12-18T07:36:47;-14565.66;;;-143.32;100.00
14134;BME280;7147;59.364;18.018;2022-12-18T07:39:14;-14565.66;;;-143.32;100.00
14134;BME280;7147;59.364;18.018;2022-12-18T07:41:42;-14565.66;;;-143.32;100.00
14134;BME280;7147;59.364;18.018;2022-12-18T07:44:29;-14565.66;;;-143.32;100.00
14134;BME280;7147;59.364;18.018;2022-12-18T07:46:56;-14565.66;;;-143.32;100.00
14134;BME280;7147;59.364;18.018;2022-12-18T07:49:23;-14565.66;;;-143.32;100.00
14134;BME280;7147;59.364;18.018;2022-12-18T07:51:49;-14565.66;;;-143.32;100.00
14134;BME280;7147;59.364;18.018;2022-12-18T07:54:16;-14565.66;;;-143.32;100.00
14134;BME280;7147;59.364;18.018;2022-12-18T07:56:45;-14565.66;;;-143.32;100.00
14134;BME280;7147;59.364;18.018;2022-12-18T07:59:11;-14565.66;;;-143.32;100.00
14134;BME280;7147;59.364;18.018;2022-12-18T08:01:38;-14565.66;;;-143.32;100.00
14134;BME280;7147;59.364;18.018;2022-12-18T08:04:05;-14565.66;;;-143.32;100.00
14134;BME280;7147;59.364;18.018;2022-12-18T08:06:32;-14565.66;;;-143.32;100.00
14134;BME280;7147;59.364;18.018;2022-12-18T08:08:59;-14565.66;;;-143.32;100.00
14134;BME280;7147;59.364;18.018;2022-12-18T08:11:26;-14565.66;;;-143.32;100.00
14134;BME280;7147;59.364;18.018;2022-12-18T08:13:56;-14565.66;;;-143.32;100.00
14134;BME280;7147;59.364;18.018;2022-12-18T08:16:23;-14565.66;;;-143.32;100.00
14134;BME280;7147;59.364;18.018;2022-12-18T08:18:51;-14565.66;;;-143.32;100.00
14134;BME280;7147;59.364;18.018;2022-12-18T08:21:20;-14565.66;;;-143.32;100.00
14134;BME280;7147;59.364;18.018;2022-12-18T08:23:48;-14565.66;;;-143.32;100.00
14134;BME280;7147;59.364;18.018;2022-12-18T08:26:15;-14565.66;;;-143.32;100.00
14134;BME280;7147;59.364;18.018;2022-12-18T08:28:42;-14565.66;;;-143.32;100.00
14134;BME280;7147;59.364;18.018;2022-12-18T08:31:10;-14565.66;;;-143.32;100.00
14134;BME280;7147;59.364;18.018;2022-12-18T08:33:38;-14565.66;;;-143.32;100.00
14134;BME280;7147;59.364;18.018;2022-12-18T08:36:06;-14565.66;;;-143.32;100.00
14134;BME280;7147;59.364;18.018;2022-12-18T08:38:33;-14565.66;;;-143.32;100.00
14134;BME280;7147;59.364;18.018;2022-12-18T08:41:01;-14565.66;;;-143.32;100.00
14134;BME280;7147;59.364;18.018;2022-12-18T08:43:28;-14565.66;;;-143.32;100.00
14134;BME280;7147;59.364;18.018;2022-12-18T08:46:17;-14565.66;;;-143.32;100.00
14134;BME280;7147;59.364;18.018;2022-12-18T08:48:44;-14565.66;;;-143.32;100.00
14134;BME280;7147;59.364;18.018;2022-12-18T08:51:11;-14565.66;;;-143.32;100.00
14134;BME280;7147;59.364;18.018;2022-12-18T08:53:38;-14565.66;;;-143.32;100.00
14134;BME280;7147;59.364;18.018;2022-12-18T08:56:06;-14565.66;;;-143.32;100.00
14134;BME280;7147;59.364;18.018;2022-12-18T08:58:32;-14565.66;;;-143.32;100.00
14134;BME280;7147;59.364;18.018;2022-12-18T09:01:00;-14565.66;;;-143.32;100.00
14134;BME280;7147;59.364;18.018;2022-12-18T09:03:29;-14565.66;;;-143.32;100.00
14134;BME280;7147;59.364;18.018;2022-12-18T09:05:55;-14565.66;;;-143.32;100.00
14134;BME280;7147;59.364;18.018;2022-12-18T09:08:22;-14565.66;;;-143.32;100.00
14134;BME280;7147;59.364;18.018;2022-12-18T09:10:51;-14565.66;;;-143.32;100.00
14134;BME280;7147;59.364;18.018;2022-12-18T09:13:18;-14565.66;;;-143.32;100.00
14134;BME280;7147;59.364;18.018;2022-12-18T09:15:47;-14565.66;;;-143.32;100.00
14134;BME280;7147;59.364;18.018;2022-12-18T09:18:16;-14565.66;;;-143.32;100.00
14134;BME280;7147;59.364;18.018;2022-12-18T09:20:46;-14565.66;;;-143.32;100.00
14134;BME280;7147;59.364;18.018;2022-12-18T09:23:13;-14565.66;;;-143.32;100.00
14134;BME280;7147;59.364;18.018;2022-12-18T09:25:40;-14565.66;;;-143.32;100.00
14134;BME280;7147;59.364;18.018;2022-12-18T09:28:11;-14565.66;;;-143.32;100.00
14134;BME280;7147;59.364;18.018;2022-12-18T09:30:39;-14565.66;;;-143.32;100.00
14134;BME280;7147;59.364;18.018;2022-12-18T09:33:06;-14565.66;;;-143.32;100.00
14134;BME280;7147;59.364;18.018;2022-12-18T09:35:35;-14565.66;;;-143.32;100.00
14134;BME280;7147;59.364;18.018;2022-12-18T09:38:04;-14565.66;;;-143.32;100.00
14134;BME280;7147;59.364;18.018;2022-12-18T09:40:39;-14565.66;;;-143.32;100.00
14134;BME280;7147;59.364;18.018;2022-12-18T09:43:14;-14565.66;;;-143.32;100.00
14134;BME280;7147;59.364;18.018;2022-12-18T09:45:46;-14565.66;;;-143.32;100.00
14134;BME280;7147;59.364;18.018;2022-12-18T09:48:19;-14565.66;;;-143.32;100.00
14134;BME280;7147;59.364;18.018;2022-12-18T09:50:48;-14565.66;;;-143.32;100.00
14134;BME280;7147;59.364;18.018;2022-12-18T09:53:21;-14565.66;;;-143.32;100.00
14134;BME280;7147;59.364;18.018;2022-12-18T09:55:50;-14565.66;;;-143.32;100.00
14134;BME280;7147;59.364;18.018;2022-12-18T09:58:24;-14565.66;;;-143.32;100.00
14134;BME280;7147;59.364;18.018;2022-12-18T10:00:53;-14565.66;;;-143.32;100.00
14134;BME280;7147;59.364;18.018;2022-12-18T10:03:21;-14565.66;;;-143.32;100.00
14134;BME280;7147;59.364;18.018;2022-12-18T10:05:55;-14565.66;;;-143.32;100.00
14134;BME280;7147;59.364;18.018;2022-12-18T10:08:35;-14565.66;;;-143.32;100.00
14134;BME280;7147;59.364;18.018;2022-12-18T10:11:21;-14565.66;;;-143.32;100.00
14134;BME280;7147;59.364;18.018;2022-12-18T10:13:57;-14565.66;;;-143.32;100.00
14134;BME280;7147;59.364;18.018;2022-12-18T10:16:31;-14565.66;;;-143.32;100.00
14134;BME280;7147;59.364;18.018;2022-12-18T10:19:14;-14565.66;;;-143.32;100.00
14134;BME280;7147;59.364;18.018;2022-12-18T10:21:51;-14565.66;;;-143.32;100.00
14134;BME280;7147;59.364;18.018;2022-12-18T10:24:29;-14565.66;;;-143.32;100.00
14134;BME280;7147;59.364;18.018;2022-12-18T10:27:08;-14565.66;;;-143.32;100.00
14134;BME280;7147;59.364;18.018;2022-12-18T10:29:38;-14565.66;;;-143.32;100.00
14134;BME280;7147;59.364;18.018;2022-12-18T10:32:04;-14565.66;;;-143.32;100.00
14134;BME280;7147;59.364;18.018;2022-12-18T10:34:31;-14565.66;;;-143.32;100.00
14134;BME280;7147;59.364;18.018;2022-12-18T10:37:00;-14565.66;;;-143.32;100.00
14134;BME280;7147;59.364;18.018;2022-12-18T10:39:34;-14565.66;;;-143.32;100.00
14134;BME280;7147;59.364;18.018;2022-12-18T10:42:11;-14565.66;;;-143.32;100.00
14134;BME280;7147;59.364;18.018;2022-12-18T10:44:38;-14565.66;;;-143.32;100.00
14134;BME280;7147;59.364;18.018;2022-12-18T10:47:11;-14565.66;;;-143.32;100.00
14134;BME280;7147;59.364;18.018;2022-12-18T10:49:47;-14565.66;;;-143.32;100.00
14134;BME280;7147;59.364;18.018;2022-12-18T10:52:17;-14565.66;;;-143.32;100.00
14134;BME280;7147;59.364;18.018;2022-12-18T10:54:51;-14565.66;;;-143.32;100.00
14134;BME280;7147;59.364;18.018;2022-12-18T10:57:31;-14565.66;;;-143.32;100.00
14134;BME280;7147;59.364;18.018;2022-12-18T10:59:59;-14565.66;;;-143.32;100.00
14134;BME280;7147;59.364;18.018;2022-12-18T11:02:33;-14565.66;;;-143.32;100.00
14134;BME280;7147;59.364;18.018;2022-12-18T11:05:01;-14565.66;;;-143.32;100.00
14134;BME280;7147;59.364;18.018;2022-12-18T11:07:47;-14565.66;;;-143.32;100.00
14134;BME280;7147;59.364;18.018;2022-12-18T11:10:17;-14565.66;;;-143.32;100.00
14134;BME280;7147;59.364;18.018;2022-12-18T11:12:46;-14565.66;;;-143.32;100.00
14134;BME280;7147;59.364;18.018;2022-12-18T11:15:19;65415.09;;;-143.32;100.00
14134;BME280;7147;59.364;18.018;2022-12-18T11:17:47;65415.09;;;-143.32;100.00
14134;BME280;7147;59.364;18.018;2022-12-18T11:20:22;65415.09;;;-143.32;100.00
14134;BME280;7147;59.364;18.018;2022-12-18T11:22:56;65415.09;;;-143.32;100.00
14134;BME280;7147;59.364;18.018;2022-12-18T11:25:25;65415.09;;;-143.32;100.00
14134;BME280;7147;59.364;18.018;2022-12-18T11:27:55;65415.09;;;-143.32;100.00
14134;BME280;7147;59.364;18.018;2022-12-18T11:30:25;65415.09;;;-143.32;100.00
14134;BME280;7147;59.364;18.018;2022-12-18T11:32:55;65415.09;;;-143.32;100.00
14134;BME280;7147;59.364;18.018;2022-12-18T11:35:39;65415.09;;;-143.32;100.00
14134;BME280;7147;59.364;18.018;2022-12-18T11:38:18;65415.09;;;-143.32;100.00
14134;BME280;7147;59.364;18.018;2022-12-18T11:40:51;65415.09;;;-143.32;100.00
14134;BME280;7147;59.364;18.018;2022-12-18T11:43:26;65415.09;;;-143.32;100.00
14134;BME280;7147;59.364;18.018;2022-12-18T11:45:59;65415.09;;;-143.32;100.00
14134;BME280;7147;59.364;18.018;2022-12-18T11:48:32;65415.09;;;-143.32;100.00
14134;BME280;7147;59.364;18.018;2022-12-18T11:51:02;65415.09;;;-143.32;100.00
14134;BME280;7147;59.364;18.018;2022-12-18T11:53:30;65415.09;;;-143.32;100.00
14134;BME280;7147;59.364;18.018;2022-12-18T11:56:17;65415.09;;;-143.32;100.00
14134;BME280;7147;59.364;18.018;2022-12-18T11:58:47;65415.09;;;-143.32;100.00
14134;BME280;7147;59.364;18.018;2022-12-18T12:01:30;65415.09;;;-143.32;100.00
14134;BME280;7147;59.364;18.018;2022-12-18T12:04:15;65415.09;;;-143.32;100.00
14134;BME280;7147;59.364;18.018;2022-12-18T12:06:53;65415.09;;;-143.32;100.00
14134;BME280;7147;59.364;18.018;2022-12-18T12:09:28;65415.09;;;-143.32;100.00
14134;BME280;7147;59.364;18.018;2022-12-18T12:12:06;65415.09;;;-143.32;100.00
14134;BME280;7147;59.364;18.018;2022-12-18T12:14:46;65415.09;;;-143.32;100.00
14134;BME280;7147;59.364;18.018;2022-12-18T12:17:21;65415.09;;;-143.32;100.00
14134;BME280;7147;59.364;18.018;2022-12-18T12:19:57;65415.09;;;-143.32;100.00
14134;BME280;7147;59.364;18.018;2022-12-18T12:22:36;65415.09;;;-143.32;100.00
14134;BME280;7147;59.364;18.018;2022-12-18T12:25:15;65415.09;;;-143.32;100.00
14134;BME280;7147;59.364;18.018;2022-12-18T12:27:52;65415.09;;;-143.32;100.00
14134;BME280;7147;59.364;18.018;2022-12-18T12:30:29;65415.09;;;-143.32;100.00
14134;BME280;7147;59.364;18.018;2022-12-18T12:33:11;65415.09;;;-143.32;100.00
14134;BME280;7147;59.364;18.018;2022-12-18T12:35:47;65415.09;;;-143.32;100.00